sensor_id;sensor_type;location;lat;lon;timestamp;temperature;humidity
65231;DHT22;51813;40.666;16.602;2023-03-14T00:00:34;17.10;51.90
65231;DHT22;51813;40.666;16.602;2023-03-14T00:03:00;17.10;52.00
65231;DHT22;51813;40.666;16.602;2023-03-14T00:05:26;17.10;52.00
65231;DHT22;51813;40.666;16.602;2023-03-14T00:07:51;17.10;52.10
65231;DHT22;51813;40.666;16.602;2023-03-14T00:10:17;17.00;52.00
65231;DHT22;51813;40.666;16.602;2023-03-14T00:12:43;17.00;52.10
65231;DHT22;51813;40.666;16.602;2023-03-14T00:15:10;17.10;52.10
65231;DHT22;51813;40.666;16.602;2023-03-14T00:17:36;17.10;52.10
65231;DHT22;51813;40.666;16.602;2023-03-14T00:20:03;17.00;52.00
65231;DHT22;51813;40.666;16.602;2023-03-14T00:22:34;17.10;52.00
65231;DHT22;51813;40.666;16.602;2023-03-14T00:25:00;17.10;52.20
65231;DHT22;51813;40.666;16.602;2023-03-14T00:27:26;17.00;52.00
65231;DHT22;51813;40.666;16.602;2023-03-14T00:29:52;17.10;52.00
65231;DHT22;51813;40.666;16.602;2023-03-14T00:32:17;17.00;51.90
65231;DHT22;51813;40.666;16.602;2023-03-14T00:34:43;17.00;52.10
65231;DHT22;51813;40.666;16.602;2023-03-14T00:37:09;17.10;52.00
65231;DHT22;51813;40.666;16.602;2023-03-14T00:39:34;17.00;52.10
65231;DHT22;51813;40.666;16.602;2023-03-14T00:42:00;17.10;52.10
65231;DHT22;51813;40.666;16.602;2023-03-14T00:44:26;17.00;51.90
65231;DHT22;51813;40.666;16.602;2023-03-14T00:46:51;17.00;52.20
65231;DHT22;51813;40.666;16.602;2023-03-14T00:49:17;17.00;52.20
65231;DHT22;51813;40.666;16.602;2023-03-14T00:51:43;17.00;52.30
65231;DHT22;51813;40.666;16.602;2023-03-14T00:54:08;17.00;52.10
65231;DHT22;51813;40.666;16.602;2023-03-14T00:56:34;17.00;52.30
65231;DHT22;51813;40.666;16.602;2023-03-14T00:59:00;17.00;52.10
65231;DHT22;51813;40.666;16.602;2023-03-14T01:01:25;17.00;52.40
65231;DHT22;51813;40.666;16.602;2023-03-14T01:03:52;17.00;52.30
65231;DHT22;51813;40.666;16.602;2023-03-14T01:06:24;17.00;52.30
65231;DHT22;51813;40.666;16.602;2023-03-14T01:08:50;17.00;52.30
65231;DHT22;51813;40.666;16.602;2023-03-14T01:11:19;17.00;52.40
65231;DHT22;51813;40.666;16.602;2023-03-14T01:13:45;17.00;52.30
65231;DHT22;51813;40.666;16.602;2023-03-14T01:16:12;17.00;52.40
65231;DHT22;51813;40.666;16.602;2023-03-14T01:18:39;17.00;52.40
65231;DHT22;51813;40.666;16.602;2023-03-14T01:21:20;16.90;52.30
65231;DHT22;51813;40.666;16.602;2023-03-14T01:23:47;17.00;52.50
65231;DHT22;51813;40.666;16.602;2023-03-14T01:26:15;16.90;52.50
65231;DHT22;51813;40.666;16.602;2023-03-14T01:28:41;16.90;52.60
65231;DHT22;51813;40.666;16.602;2023-03-14T01:31:09;16.90;52.70
65231;DHT22;51813;40.666;16.602;2023-03-14T01:33:36;16.90;52.70
65231;DHT22;51813;40.666;16.602;2023-03-14T01:36:02;16.90;52.90
65231;DHT22;51813;40.666;16.602;2023-03-14T01:38:32;16.90;52.80
65231;DHT22;51813;40.666;16.602;2023-03-14T01:40:58;16.90;52.90
65231;DHT22;51813;40.666;16.602;2023-03-14T01:43:25;16.90;52.90
65231;DHT22;51813;40.666;16.602;2023-03-14T01:54:36;16.90;53.10
65231;DHT22;51813;40.666;16.602;2023-03-14T01:57:02;16.90;53.30
65231;DHT22;51813;40.666;16.602;2023-03-14T01:59:30;16.90;53.30
65231;DHT22;51813;40.666;16.602;2023-03-14T02:01:57;16.90;53.40
65231;DHT22;51813;40.666;16.602;2023-03-14T02:04:28;16.90;53.40
65231;DHT22;51813;40.666;16.602;2023-03-14T02:07:20;16.90;53.50
65231;DHT22;51813;40.666;16.602;2023-03-14T02:09:46;16.90;53.50
65231;DHT22;51813;40.666;16.602;2023-03-14T02:12:15;16.90;53.60
65231;DHT22;51813;40.666;16.602;2023-03-14T02:14:42;16.90;53.60
65231;DHT22;51813;40.666;16.602;2023-03-14T02:17:14;16.90;53.80
65231;DHT22;51813;40.666;16.602;2023-03-14T02:22:21;16.90;53.80
65231;DHT22;51813;40.666;16.602;2023-03-14T02:27:34;16.90;54.00
65231;DHT22;51813;40.666;16.602;2023-03-14T02:30:08;16.90;54.00
65231;DHT22;51813;40.666;16.602;2023-03-14T02:32:37;16.90;54.20
65231;DHT22;51813;40.666;16.602;2023-03-14T02:35:08;16.90;54.10
65231;DHT22;51813;40.666;16.602;2023-03-14T02:40:18;16.90;54.20
65231;DHT22;51813;40.666;16.602;2023-03-14T02:42:45;16.90;54.40
65231;DHT22;51813;40.666;16.602;2023-03-14T02:47:43;16.90;54.60
65231;DHT22;51813;40.666;16.602;2023-03-14T02:50:14;16.90;54.60
65231;DHT22;51813;40.666;16.602;2023-03-14T02:52:40;16.80;54.70
65231;DHT22;51813;40.666;16.602;2023-03-14T02:55:06;16.90;54.80
65231;DHT22;51813;40.666;16.602;2023-03-14T02:57:32;16.90;54.70
65231;DHT22;51813;40.666;16.602;2023-03-14T02:59:59;16.90;54.80
65231;DHT22;51813;40.666;16.602;2023-03-14T03:02:25;16.80;55.50
65231;DHT22;51813;40.666;16.602;2023-03-14T03:04:51;16.80;54.80
65231;DHT22;51813;40.666;16.602;2023-03-14T03:07:17;16.90;54.90
65231;DHT22;51813;40.666;16.602;2023-03-14T03:09:42;16.90;55.00
65231;DHT22;51813;40.666;16.602;2023-03-14T03:12:08;16.90;55.00
65231;DHT22;51813;40.666;16.602;2023-03-14T03:14:34;16.90;55.10
65231;DHT22;51813;40.666;16.602;2023-03-14T03:16:59;16.80;55.00
65231;DHT22;51813;40.666;16.602;2023-03-14T03:19:25;16.80;55.10
65231;DHT22;51813;40.666;16.602;2023-03-14T03:21:51;16.80;55.30
65231;DHT22;51813;40.666;16.602;2023-03-14T03:24:16;16.80;55.30
65231;DHT22;51813;40.666;16.602;2023-03-14T03:26:42;16.80;55.40
65231;DHT22;51813;40.666;16.602;2023-03-14T03:29:08;16.80;55.40
65231;DHT22;51813;40.666;16.602;2023-03-14T03:31:36;16.80;55.50
65231;DHT22;51813;40.666;16.602;2023-03-14T03:34:02;16.80;55.40
65231;DHT22;51813;40.666;16.602;2023-03-14T03:36:27;16.80;55.50
65231;DHT22;51813;40.666;16.602;2023-03-14T03:38:53;16.80;55.70
65231;DHT22;51813;40.666;16.602;2023-03-14T03:41:19;16.80;55.70
65231;DHT22;51813;40.666;16.602;2023-03-14T03:43:44;16.80;55.70
65231;DHT22;51813;40.666;16.602;2023-03-14T03:46:10;16.80;55.80
65231;DHT22;51813;40.666;16.602;2023-03-14T03:48:36;16.80;55.70
65231;DHT22;51813;40.666;16.602;2023-03-14T03:51:02;16.80;55.70
65231;DHT22;51813;40.666;16.602;2023-03-14T03:53:28;16.80;55.80
65231;DHT22;51813;40.666;16.602;2023-03-14T03:55:53;16.80;55.90
65231;DHT22;51813;40.666;16.602;2023-03-14T03:58:19;16.80;55.90
65231;DHT22;51813;40.666;16.602;2023-03-14T04:00:45;16.80;55.90
65231;DHT22;51813;40.666;16.602;2023-03-14T04:03:10;16.80;56.00
65231;DHT22;51813;40.666;16.602;2023-03-14T04:05:36;16.80;56.00
65231;DHT22;51813;40.666;16.602;2023-03-14T04:08:02;16.80;56.10
65231;DHT22;51813;40.666;16.602;2023-03-14T04:10:28;16.70;56.10
65231;DHT22;51813;40.666;16.602;2023-03-14T04:12:54;16.80;56.10
65231;DHT22;51813;40.666;16.602;2023-03-14T04:15:19;16.80;56.90
65231;DHT22;51813;40.666;16.602;2023-03-14T04:17:45;16.70;56.20
65231;DHT22;51813;40.666;16.602;2023-03-14T04:20:11;16.70;56.20
65231;DHT22;51813;40.666;16.602;2023-03-14T04:22:38;16.80;56.30
65231;DHT22;51813;40.666;16.602;2023-03-14T04:25:05;16.70;56.30
65231;DHT22;51813;40.666;16.602;2023-03-14T04:27:31;16.70;56.30
65231;DHT22;51813;40.666;16.602;2023-03-14T04:29:57;16.70;56.30
65231;DHT22;51813;40.666;16.602;2023-03-14T04:32:22;16.70;56.30
65231;DHT22;51813;40.666;16.602;2023-03-14T04:34:48;16.70;56.30
65231;DHT22;51813;40.666;16.602;2023-03-14T04:37:14;16.70;56.40
65231;DHT22;51813;40.666;16.602;2023-03-14T04:39:39;16.70;56.30
65231;DHT22;51813;40.666;16.602;2023-03-14T04:42:05;16.70;56.30
65231;DHT22;51813;40.666;16.602;2023-03-14T04:44:31;16.80;56.30
65231;DHT22;51813;40.666;16.602;2023-03-14T04:46:57;16.80;56.40
65231;DHT22;51813;40.666;16.602;2023-03-14T04:49:22;16.80;56.40
65231;DHT22;51813;40.666;16.602;2023-03-14T04:51:48;16.70;56.30
65231;DHT22;51813;40.666;16.602;2023-03-14T04:54:16;16.70;56.30
65231;DHT22;51813;40.666;16.602;2023-03-14T04:56:42;16.80;56.30
65231;DHT22;51813;40.666;16.602;2023-03-14T04:59:08;16.80;56.40
65231;DHT22;51813;40.666;16.602;2023-03-14T05:01:34;16.70;56.30
65231;DHT22;51813;40.666;16.602;2023-03-14T05:04:01;16.80;56.30
65231;DHT22;51813;40.666;16.602;2023-03-14T05:06:26;16.70;56.30
65231;DHT22;51813;40.666;16.602;2023-03-14T05:08:52;16.70;56.30
65231;DHT22;51813;40.666;16.602;2023-03-14T05:11:18;16.70;56.40
65231;DHT22;51813;40.666;16.602;2023-03-14T05:13:44;16.70;57.10
65231;DHT22;51813;40.666;16.602;2023-03-14T05:16:11;16.70;56.30
65231;DHT22;51813;40.666;16.602;2023-03-14T05:18:37;16.70;56.30
65231;DHT22;51813;40.666;16.602;2023-03-14T05:21:03;16.70;56.30
65231;DHT22;51813;40.666;16.602;2023-03-14T05:23:29;16.70;56.30
65231;DHT22;51813;40.666;16.602;2023-03-14T05:25:54;16.70;56.40
65231;DHT22;51813;40.666;16.602;2023-03-14T05:28:20;16.70;56.30
65231;DHT22;51813;40.666;16.602;2023-03-14T05:30:46;16.70;56.30
65231;DHT22;51813;40.666;16.602;2023-03-14T05:33:12;16.70;56.30
65231;DHT22;51813;40.666;16.602;2023-03-14T05:35:37;16.80;56.30
65231;DHT22;51813;40.666;16.602;2023-03-14T05:38:03;16.70;56.30
65231;DHT22;51813;40.666;16.602;2023-03-14T05:40:29;16.70;56.30
65231;DHT22;51813;40.666;16.602;2023-03-14T05:42:54;16.70;56.30
65231;DHT22;51813;40.666;16.602;2023-03-14T05:45:20;16.70;56.30
65231;DHT22;51813;40.666;16.602;2023-03-14T05:47:46;16.70;56.30
65231;DHT22;51813;40.666;16.602;2023-03-14T05:50:12;16.70;56.30
65231;DHT22;51813;40.666;16.602;2023-03-14T05:52:38;16.70;56.20
65231;DHT22;51813;40.666;16.602;2023-03-14T05:55:04;16.70;56.20
65231;DHT22;51813;40.666;16.602;2023-03-14T05:57:30;16.70;56.10
65231;DHT22;51813;40.666;16.602;2023-03-14T05:59:56;16.70;56.10
65231;DHT22;51813;40.666;16.602;2023-03-14T06:02:21;16.70;56.10
65231;DHT22;51813;40.666;16.602;2023-03-14T06:04:47;16.70;56.10
65231;DHT22;51813;40.666;16.602;2023-03-14T06:07:12;16.70;56.10
65231;DHT22;51813;40.666;16.602;2023-03-14T06:09:38;16.70;56.00
65231;DHT22;51813;40.666;16.602;2023-03-14T06:12:05;16.70;56.00
65231;DHT22;51813;40.666;16.602;2023-03-14T06:14:31;16.70;56.00
65231;DHT22;51813;40.666;16.602;2023-03-14T06:16:56;16.70;55.90
65231;DHT22;51813;40.666;16.602;2023-03-14T06:19:24;16.70;55.90
65231;DHT22;51813;40.666;16.602;2023-03-14T06:21:50;16.70;55.90
65231;DHT22;51813;40.666;16.602;2023-03-14T06:24:16;16.70;55.90
65231;DHT22;51813;40.666;16.602;2023-03-14T06:26:42;16.70;55.90
65231;DHT22;51813;40.666;16.602;2023-03-14T06:29:07;16.70;55.90
65231;DHT22;51813;40.666;16.602;2023-03-14T06:31:33;16.70;55.90
65231;DHT22;51813;40.666;16.602;2023-03-14T06:33:59;16.70;55.80
65231;DHT22;51813;40.666;16.602;2023-03-14T06:36:25;16.70;55.80
65231;DHT22;51813;40.666;16.602;2023-03-14T06:38:50;16.70;55.80
65231;DHT22;51813;40.666;16.602;2023-03-14T06:41:16;16.70;55.80
65231;DHT22;51813;40.666;16.602;2023-03-14T06:43:42;16.70;55.90
65231;DHT22;51813;40.666;16.602;2023-03-14T06:46:08;16.70;55.80
65231;DHT22;51813;40.666;16.602;2023-03-14T06:48:33;16.70;55.90
65231;DHT22;51813;40.666;16.602;2023-03-14T06:50:59;16.70;56.00
65231;DHT22;51813;40.666;16.602;2023-03-14T06:53:25;16.70;56.00
65231;DHT22;51813;40.666;16.602;2023-03-14T06:55:50;16.70;56.00
65231;DHT22;51813;40.666;16.602;2023-03-14T06:58:16;16.80;56.00
65231;DHT22;51813;40.666;16.602;2023-03-14T07:00:42;16.80;56.00
65231;DHT22;51813;40.666;16.602;2023-03-14T07:03:10;16.80;56.00
65231;DHT22;51813;40.666;16.602;2023-03-14T07:05:35;16.80;56.00
65231;DHT22;51813;40.666;16.602;2023-03-14T07:08:01;16.80;55.90
65231;DHT22;51813;40.666;16.602;2023-03-14T07:10:27;16.80;55.80
65231;DHT22;51813;40.666;16.602;2023-03-14T07:12:53;16.90;55.80
65231;DHT22;51813;40.666;16.602;2023-03-14T07:15:19;16.80;55.90
65231;DHT22;51813;40.666;16.602;2023-03-14T07:17:46;16.80;56.20
65231;DHT22;51813;40.666;16.602;2023-03-14T07:20:13;16.80;56.40
65231;DHT22;51813;40.666;16.602;2023-03-14T07:22:39;16.80;56.40
65231;DHT22;51813;40.666;16.602;2023-03-14T07:25:05;16.80;56.40
65231;DHT22;51813;40.666;16.602;2023-03-14T07:27:31;16.70;56.40
65231;DHT22;51813;40.666;16.602;2023-03-14T07:29:56;16.70;56.40
65231;DHT22;51813;40.666;16.602;2023-03-14T07:32:22;16.70;56.40
65231;DHT22;51813;40.666;16.602;2023-03-14T07:34:48;16.80;56.40
65231;DHT22;51813;40.666;16.602;2023-03-14T07:37:14;16.80;56.40
65231;DHT22;51813;40.666;16.602;2023-03-14T07:39:39;16.80;56.40
65231;DHT22;51813;40.666;16.602;2023-03-14T07:42:05;16.80;56.40
65231;DHT22;51813;40.666;16.602;2023-03-14T07:44:31;16.80;56.50
65231;DHT22;51813;40.666;16.602;2023-03-14T07:46:57;16.80;56.50
65231;DHT22;51813;40.666;16.602;2023-03-14T07:49:22;16.80;56.60
65231;DHT22;51813;40.666;16.602;2023-03-14T07:51:49;16.80;56.60
65231;DHT22;51813;40.666;16.602;2023-03-14T07:54:14;16.80;56.50
65231;DHT22;51813;40.666;16.602;2023-03-14T07:56:40;16.70;56.40
65231;DHT22;51813;40.666;16.602;2023-03-14T07:59:06;16.70;56.50
65231;DHT22;51813;40.666;16.602;2023-03-14T08:01:32;16.70;56.40
65231;DHT22;51813;40.666;16.602;2023-03-14T08:03:58;16.80;56.50
65231;DHT22;51813;40.666;16.602;2023-03-14T08:06:24;16.80;56.50
65231;DHT22;51813;40.666;16.602;2023-03-14T08:08:50;16.80;56.40
65231;DHT22;51813;40.666;16.602;2023-03-14T08:11:15;16.80;56.40
65231;DHT22;51813;40.666;16.602;2023-03-14T08:13:41;16.80;56.40
65231;DHT22;51813;40.666;16.602;2023-03-14T08:16:08;16.80;56.40
65231;DHT22;51813;40.666;16.602;2023-03-14T08:18:34;16.70;56.60
65231;DHT22;51813;40.666;16.602;2023-03-14T08:20:59;16.70;56.90
65231;DHT22;51813;40.666;16.602;2023-03-14T08:23:25;16.70;57.00
65231;DHT22;51813;40.666;16.602;2023-03-14T08:25:52;16.70;57.10
65231;DHT22;51813;40.666;16.602;2023-03-14T08:28:18;16.70;57.40
65231;DHT22;51813;40.666;16.602;2023-03-14T08:30:43;16.70;57.60
65231;DHT22;51813;40.666;16.602;2023-03-14T08:33:09;16.70;57.10
65231;DHT22;51813;40.666;16.602;2023-03-14T08:35:37;16.70;56.30
65231;DHT22;51813;40.666;16.602;2023-03-14T08:38:03;16.70;56.20
65231;DHT22;51813;40.666;16.602;2023-03-14T08:40:29;16.80;56.30
65231;DHT22;51813;40.666;16.602;2023-03-14T08:42:54;16.80;55.70
65231;DHT22;51813;40.666;16.602;2023-03-14T08:45:20;16.80;55.70
65231;DHT22;51813;40.666;16.602;2023-03-14T08:47:47;16.90;55.40
65231;DHT22;51813;40.666;16.602;2023-03-14T08:50:13;16.90;54.60
65231;DHT22;51813;40.666;16.602;2023-03-14T08:52:39;16.90;54.40
65231;DHT22;51813;40.666;16.602;2023-03-14T08:55:09;16.90;54.20
65231;DHT22;51813;40.666;16.602;2023-03-14T08:57:35;16.90;54.50
65231;DHT22;51813;40.666;16.602;2023-03-14T09:00:03;16.90;54.60
65231;DHT22;51813;40.666;16.602;2023-03-14T09:02:31;16.90;54.70
65231;DHT22;51813;40.666;16.602;2023-03-14T09:04:56;16.90;54.70
65231;DHT22;51813;40.666;16.602;2023-03-14T09:07:22;16.90;54.90
65231;DHT22;51813;40.666;16.602;2023-03-14T09:09:48;16.90;55.10
65231;DHT22;51813;40.666;16.602;2023-03-14T09:12:14;16.90;55.10
65231;DHT22;51813;40.666;16.602;2023-03-14T09:14:39;16.90;55.20
65231;DHT22;51813;40.666;16.602;2023-03-14T09:17:05;16.90;54.80
65231;DHT22;51813;40.666;16.602;2023-03-14T09:19:31;16.90;54.80
65231;DHT22;51813;40.666;16.602;2023-03-14T09:21:56;16.90;54.90
65231;DHT22;51813;40.666;16.602;2023-03-14T09:24:22;16.90;54.90
65231;DHT22;51813;40.666;16.602;2023-03-14T09:26:48;16.90;54.80
65231;DHT22;51813;40.666;16.602;2023-03-14T09:29:13;16.90;55.00
65231;DHT22;51813;40.666;16.602;2023-03-14T09:31:39;17.00;55.30
65231;DHT22;51813;40.666;16.602;2023-03-14T09:34:05;17.00;56.30
65231;DHT22;51813;40.666;16.602;2023-03-14T09:36:31;17.00;56.70
65231;DHT22;51813;40.666;16.602;2023-03-14T09:38:56;17.00;57.30
65231;DHT22;51813;40.666;16.602;2023-03-14T09:41:28;17.00;58.50
65231;DHT22;51813;40.666;16.602;2023-03-14T09:44:11;17.00;57.80
65231;DHT22;51813;40.666;16.602;2023-03-14T09:46:40;17.00;58.30
65231;DHT22;51813;40.666;16.602;2023-03-14T09:49:18;17.00;58.40
65231;DHT22;51813;40.666;16.602;2023-03-14T09:51:47;17.00;58.70
65231;DHT22;51813;40.666;16.602;2023-03-14T09:57:23;17.20;58.00
65231;DHT22;51813;40.666;16.602;2023-03-14T09:59:50;17.40;57.80
65231;DHT22;51813;40.666;16.602;2023-03-14T10:02:23;17.50;56.90
65231;DHT22;51813;40.666;16.602;2023-03-14T10:04:51;17.70;56.20
65231;DHT22;51813;40.666;16.602;2023-03-14T10:07:19;17.90;55.70
65231;DHT22;51813;40.666;16.602;2023-03-14T10:09:49;18.00;55.30
65231;DHT22;51813;40.666;16.602;2023-03-14T10:12:16;18.10;54.70
65231;DHT22;51813;40.666;16.602;2023-03-14T10:14:49;18.20;54.30
65231;DHT22;51813;40.666;16.602;2023-03-14T10:17:16;18.30;53.80
65231;DHT22;51813;40.666;16.602;2023-03-14T10:22:19;18.60;53.10
65231;DHT22;51813;40.666;16.602;2023-03-14T10:24:47;18.70;52.90
65231;DHT22;51813;40.666;16.602;2023-03-14T10:27:21;18.80;52.80
65231;DHT22;51813;40.666;16.602;2023-03-14T10:30:05;18.90;52.70
65231;DHT22;51813;40.666;16.602;2023-03-14T10:32:39;19.00;52.50
65231;DHT22;51813;40.666;16.602;2023-03-14T10:38:12;19.10;52.30
65231;DHT22;51813;40.666;16.602;2023-03-14T10:40:40;19.20;51.70
65231;DHT22;51813;40.666;16.602;2023-03-14T10:43:13;19.20;52.00
65231;DHT22;51813;40.666;16.602;2023-03-14T10:45:41;19.20;51.70
65231;DHT22;51813;40.666;16.602;2023-03-14T10:50:48;19.40;51.60
65231;DHT22;51813;40.666;16.602;2023-03-14T10:53:17;19.50;51.20
65231;DHT22;51813;40.666;16.602;2023-03-14T10:55:44;19.50;51.40
65231;DHT22;51813;40.666;16.602;2023-03-14T10:58:30;19.50;51.40
65231;DHT22;51813;40.666;16.602;2023-03-14T11:01:23;19.60;51.20
65231;DHT22;51813;40.666;16.602;2023-03-14T11:21:21;19.80;50.70
65231;DHT22;51813;40.666;16.602;2023-03-14T11:32:02;20.00;50.60
65231;DHT22;51813;40.666;16.602;2023-03-14T11:34:28;19.90;50.10
65231;DHT22;51813;40.666;16.602;2023-03-14T11:37:17;19.90;49.80
65231;DHT22;51813;40.666;16.602;2023-03-14T11:40:05;19.90;50.30
65231;DHT22;51813;40.666;16.602;2023-03-14T11:42:33;19.80;50.60
65231;DHT22;51813;40.666;16.602;2023-03-14T11:45:00;19.80;50.80
65231;DHT22;51813;40.666;16.602;2023-03-14T11:47:29;19.90;49.90
65231;DHT22;51813;40.666;16.602;2023-03-14T11:50:16;20.00;50.40
65231;DHT22;51813;40.666;16.602;2023-03-14T11:52:54;20.00;49.80
65231;DHT22;51813;40.666;16.602;2023-03-14T11:55:25;20.00;50.10
65231;DHT22;51813;40.666;16.602;2023-03-14T11:57:56;20.00;49.90
65231;DHT22;51813;40.666;16.602;2023-03-14T12:00:24;19.90;49.10
65231;DHT22;51813;40.666;16.602;2023-03-14T12:02:52;19.90;49.70
65231;DHT22;51813;40.666;16.602;2023-03-14T12:08:16;19.80;50.00
65231;DHT22;51813;40.666;16.602;2023-03-14T12:13:15;19.80;50.20
65231;DHT22;51813;40.666;16.602;2023-03-14T12:15:47;19.80;50.10
65231;DHT22;51813;40.666;16.602;2023-03-14T12:18:35;19.80;50.30
65231;DHT22;51813;40.666;16.602;2023-03-14T12:21:08;19.70;50.20
65231;DHT22;51813;40.666;16.602;2023-03-14T12:23:43;19.70;50.70
65231;DHT22;51813;40.666;16.602;2023-03-14T12:28:43;19.50;51.10
65231;DHT22;51813;40.666;16.602;2023-03-14T12:37:02;19.40;51.10
65231;DHT22;51813;40.666;16.602;2023-03-14T12:39:57;19.30;51.70
65231;DHT22;51813;40.666;16.602;2023-03-14T12:47:53;19.10;52.20
65231;DHT22;51813;40.666;16.602;2023-03-14T12:50:25;19.20;52.20
65231;DHT22;51813;40.666;16.602;2023-03-14T12:56:22;19.10;52.40
65231;DHT22;51813;40.666;16.602;2023-03-14T13:01:24;19.00;52.60
65231;DHT22;51813;40.666;16.602;2023-03-14T13:03:53;19.00;52.90
65231;DHT22;51813;40.666;16.602;2023-03-14T13:12:10;19.00;52.90
65231;DHT22;51813;40.666;16.602;2023-03-14T13:14:41;19.00;52.80
65231;DHT22;51813;40.666;16.602;2023-03-14T13:17:12;18.90;53.10
65231;DHT22;51813;40.666;16.602;2023-03-14T13:19:38;19.00;53.10
65231;DHT22;51813;40.666;16.602;2023-03-14T13:22:17;19.00;53.20
65231;DHT22;51813;40.666;16.602;2023-03-14T13:24:44;19.10;53.20
65231;DHT22;51813;40.666;16.602;2023-03-14T13:27:20;19.10;53.30
65231;DHT22;51813;40.666;16.602;2023-03-14T13:29:49;19.10;53.30
65231;DHT22;51813;40.666;16.602;2023-03-14T13:32:22;19.20;52.80
65231;DHT22;51813;40.666;16.602;2023-03-14T13:34:51;19.30;52.80
65231;DHT22;51813;40.666;16.602;2023-03-14T13:37:21;19.40;52.70
65231;DHT22;51813;40.666;16.602;2023-03-14T13:39:54;19.40;52.70
65231;DHT22;51813;40.666;16.602;2023-03-14T13:42:24;19.40;52.90
65231;DHT22;51813;40.666;16.602;2023-03-14T13:44:52;19.50;52.80
65231;DHT22;51813;40.666;16.602;2023-03-14T13:47:20;19.50;52.50
65231;DHT22;51813;40.666;16.602;2023-03-14T13:49:48;19.60;52.50
65231;DHT22;51813;40.666;16.602;2023-03-14T13:52:24;19.60;52.40
65231;DHT22;51813;40.666;16.602;2023-03-14T13:54:53;19.60;52.60
65231;DHT22;51813;40.666;16.602;2023-03-14T13:57:19;19.60;52.50
65231;DHT22;51813;40.666;16.602;2023-03-14T14:00:01;19.70;52.50
65231;DHT22;51813;40.666;16.602;2023-03-14T14:02:32;19.80;51.90
65231;DHT22;51813;40.666;16.602;2023-03-14T14:04:59;19.80;52.30
65231;DHT22;51813;40.666;16.602;2023-03-14T14:07:25;19.80;52.10
65231;DHT22;51813;40.666;16.602;2023-03-14T14:09:53;19.80;52.10
65231;DHT22;51813;40.666;16.602;2023-03-14T14:12:29;19.90;52.00
65231;DHT22;51813;40.666;16.602;2023-03-14T14:15:15;19.80;52.10
65231;DHT22;51813;40.666;16.602;2023-03-14T14:17:52;19.90;51.90
65231;DHT22;51813;40.666;16.602;2023-03-14T14:22:45;19.90;51.70
65231;DHT22;51813;40.666;16.602;2023-03-14T14:25:14;19.90;51.80
65231;DHT22;51813;40.666;16.602;2023-03-14T14:27:48;19.90;52.00
65231;DHT22;51813;40.666;16.602;2023-03-14T14:32:42;20.00;51.50
65231;DHT22;51813;40.666;16.602;2023-03-14T14:35:21;20.10;51.50
65231;DHT22;51813;40.666;16.602;2023-03-14T14:37:47;20.10;51.50
65231;DHT22;51813;40.666;16.602;2023-03-14T14:40:20;20.00;51.90
65231;DHT22;51813;40.666;16.602;2023-03-14T14:42:46;20.00;51.90
65231;DHT22;51813;40.666;16.602;2023-03-14T14:45:30;19.90;52.30
65231;DHT22;51813;40.666;16.602;2023-03-14T14:48:09;19.90;52.20
65231;DHT22;51813;40.666;16.602;2023-03-14T14:50:48;19.80;52.50
65231;DHT22;51813;40.666;16.602;2023-03-14T14:53:31;19.80;52.60
65231;DHT22;51813;40.666;16.602;2023-03-14T14:56:46;19.80;53.00
65231;DHT22;51813;40.666;16.602;2023-03-14T14:58:58;19.70;53.10
65231;DHT22;51813;40.666;16.602;2023-03-14T15:01:35;19.70;53.10
65231;DHT22;51813;40.666;16.602;2023-03-14T15:04:04;19.80;53.10
65231;DHT22;51813;40.666;16.602;2023-03-14T15:06:36;19.80;52.90
65231;DHT22;51813;40.666;16.602;2023-03-14T15:09:01;19.70;52.90
65231;DHT22;51813;40.666;16.602;2023-03-14T15:11:27;19.70;54.10
65231;DHT22;51813;40.666;16.602;2023-03-14T15:13:53;19.80;53.00
65231;DHT22;51813;40.666;16.602;2023-03-14T15:16:29;19.90;53.20
65231;DHT22;51813;40.666;16.602;2023-03-14T15:18:58;19.90;53.00
65231;DHT22;51813;40.666;16.602;2023-03-14T15:21:25;19.90;53.10
65231;DHT22;51813;40.666;16.602;2023-03-14T15:23:51;19.90;52.80
65231;DHT22;51813;40.666;16.602;2023-03-14T15:26:19;20.00;52.50
65231;DHT22;51813;40.666;16.602;2023-03-14T15:28:46;20.10;52.60
65231;DHT22;51813;40.666;16.602;2023-03-14T15:31:13;20.10;52.70
65231;DHT22;51813;40.666;16.602;2023-03-14T15:33:40;20.00;52.70
65231;DHT22;51813;40.666;16.602;2023-03-14T15:38:44;20.10;52.20
65231;DHT22;51813;40.666;16.602;2023-03-14T15:41:10;20.10;52.40
65231;DHT22;51813;40.666;16.602;2023-03-14T15:43:35;20.10;52.50
65231;DHT22;51813;40.666;16.602;2023-03-14T15:46:01;20.10;53.30
65231;DHT22;51813;40.666;16.602;2023-03-14T15:48:27;20.30;53.10
65231;DHT22;51813;40.666;16.602;2023-03-14T15:50:52;20.10;54.10
65231;DHT22;51813;40.666;16.602;2023-03-14T15:53:18;20.00;54.50
65231;DHT22;51813;40.666;16.602;2023-03-14T15:55:43;20.20;54.30
65231;DHT22;51813;40.666;16.602;2023-03-14T15:58:17;20.10;54.20
65231;DHT22;51813;40.666;16.602;2023-03-14T16:00:43;20.20;53.10
65231;DHT22;51813;40.666;16.602;2023-03-14T16:03:09;20.20;53.80
65231;DHT22;51813;40.666;16.602;2023-03-14T16:05:36;20.10;54.40
65231;DHT22;51813;40.666;16.602;2023-03-14T16:08:02;20.10;54.80
65231;DHT22;51813;40.666;16.602;2023-03-14T16:10:28;20.00;55.10
65231;DHT22;51813;40.666;16.602;2023-03-14T16:12:54;19.90;54.60
65231;DHT22;51813;40.666;16.602;2023-03-14T16:15:20;20.00;54.30
65231;DHT22;51813;40.666;16.602;2023-03-14T16:17:45;20.00;54.20
65231;DHT22;51813;40.666;16.602;2023-03-14T16:20:11;20.10;54.30
65231;DHT22;51813;40.666;16.602;2023-03-14T16:22:37;20.00;54.40
65231;DHT22;51813;40.666;16.602;2023-03-14T16:25:05;19.80;55.10
65231;DHT22;51813;40.666;16.602;2023-03-14T16:27:31;19.70;55.10
65231;DHT22;51813;40.666;16.602;2023-03-14T16:29:58;19.80;55.40
65231;DHT22;51813;40.666;16.602;2023-03-14T16:32:27;19.80;55.10
65231;DHT22;51813;40.666;16.602;2023-03-14T16:34:52;19.80;54.80
65231;DHT22;51813;40.666;16.602;2023-03-14T16:37:18;19.70;55.30
65231;DHT22;51813;40.666;16.602;2023-03-14T16:39:46;19.60;56.20
65231;DHT22;51813;40.666;16.602;2023-03-14T16:42:13;19.50;56.60
65231;DHT22;51813;40.666;16.602;2023-03-14T16:44:39;19.50;57.50
65231;DHT22;51813;40.666;16.602;2023-03-14T16:47:05;19.50;57.70
65231;DHT22;51813;40.666;16.602;2023-03-14T16:49:30;19.40;57.50
65231;DHT22;51813;40.666;16.602;2023-03-14T16:51:56;19.40;57.40
65231;DHT22;51813;40.666;16.602;2023-03-14T16:54:22;19.40;56.70